Time;durP1;ratioP1;P1;durP2;ratioP2;P2;SDS_P1;SDS_P2;PMS_P1;PMS_P2;Temp;Humidity;BMP_temperature;BMP_pressure;BME280_temperature;BME280_humidity;BME280_pressure;Samples;Min_cycle;Max_cycle;Signal;HPM_P1;HPM_P2
2021/12/29 00:01:20;;;;;;;38.53;22.53;;;;;;;3.10;95.75;99717.16;5050365;28;20210;-76
2021/12/29 00:03:45;;;;;;;33.50;23.03;;;;;;;3.09;95.86;99728.03;5051601;28;20186;-76
2021/12/29 00:06:11;;;;;;;35.17;22.23;;;;;;;3.08;95.60;99733.09;5051191;28;20216;-76
2021/12/29 00:08:36;;;;;;;35.60;23.17;;;;;;;3.11;94.89;99738.22;5050095;28;20293;-77
2021/12/29 00:11:02;;;;;;;34.83;23.27;;;;;;;3.09;95.51;99739.84;5051225;28;20266;-76
2021/12/29 00:13:28;;;;;;;40.57;24.83;;;;;;;3.10;95.50;99744.09;5050388;28;20256;-77
2021/12/29 00:15:57;;;;;;;34.17;22.77;;;;;;;3.10;95.54;99754.19;5051801;28;20225;-75
2021/12/29 00:18:34;;;;;;;40.70;24.50;;;;;;;3.08;95.02;99751.63;5049918;28;20192;-76
2021/12/29 00:21:02;;;;;;;40.40;23.60;;;;;;;3.07;95.41;99756.63;5030365;28;20214;-76
2021/12/29 00:23:27;;;;;;;37.67;23.80;;;;;;;3.08;95.99;99758.38;5031488;28;20221;-76
2021/12/29 00:25:53;;;;;;;36.97;24.27;;;;;;;3.02;95.10;99753.09;5030420;28;20245;-76
2021/12/29 00:28:19;;;;;;;38.83;24.40;;;;;;;3.02;95.79;99756.50;5031537;28;20614;-76
2021/12/29 00:30:45;;;;;;;37.10;23.07;;;;;;;3.05;95.78;99766.72;5030536;28;20309;-76
2021/12/29 00:33:37;;;;;;;38.40;23.47;;;;;;;3.05;95.14;99779.34;5030115;28;20557;-76
2021/12/29 00:36:21;;;;;;;40.03;24.13;;;;;;;3.02;95.33;99773.31;5030689;28;20236;-75
2021/12/29 00:39:07;;;;;;;37.20;24.63;;;;;;;3.04;95.91;99784.34;5039574;28;20225;-76
2021/12/29 00:41:51;;;;;;;35.30;23.03;;;;;;;3.03;95.48;99783.47;5031323;28;20229;-75
2021/12/29 00:44:37;;;;;;;36.07;23.83;;;;;;;3.01;94.85;99780.06;5025687;28;20547;-76
2021/12/29 00:47:10;;;;;;;32.93;22.37;;;;;;;3.03;95.36;99790.22;5049751;28;20213;-76
2021/12/29 00:49:37;;;;;;;36.73;23.17;;;;;;;3.02;95.50;99796.06;5050475;28;20186;-76
2021/12/29 00:52:05;;;;;;;36.93;22.53;;;;;;;3.00;96.09;99801.09;5050799;28;20748;-76
2021/12/29 00:54:31;;;;;;;37.13;23.53;;;;;;;2.99;95.45;99801.88;5050644;28;20327;-76
2021/12/29 00:56:56;;;;;;;34.30;23.17;;;;;;;2.99;95.15;99809.47;5050615;28;20189;-76
2021/12/29 00:59:23;;;;;;;34.20;21.93;;;;;;;2.99;95.93;99812.00;5050202;28;20189;-76
2021/12/29 01:01:50;;;;;;;33.13;22.03;;;;;;;3.01;95.55;99818.00;5032774;28;20248;-75
2021/12/29 01:04:16;;;;;;;31.00;21.40;;;;;;;3.02;95.79;99824.75;5050349;28;20186;-75
2021/12/29 01:06:41;;;;;;;33.03;20.93;;;;;;;3.02;95.32;99831.47;5048911;28;20769;-76
2021/12/29 01:09:08;;;;;;;32.43;21.90;;;;;;;2.98;95.64;99834.69;5048860;28;20193;-75
2021/12/29 01:11:33;;;;;;;33.77;22.63;;;;;;;2.94;95.38;99840.50;5048797;28;20206;-74
2021/12/29 01:13:58;;;;;;;33.93;21.57;;;;;;;2.95;95.01;99843.03;5048921;28;20201;-75
2021/12/29 01:19:05;;;;;;;34.03;22.37;;;;;;;2.95;95.45;99862.44;5049523;28;20242;-75
2021/12/29 01:21:33;;;;;;;34.47;22.20;;;;;;;2.95;95.82;99870.00;5050179;28;20209;-75
2021/12/29 01:23:58;;;;;;;34.30;22.63;;;;;;;2.95;95.66;99870.84;5032125;28;20190;-75
2021/12/29 01:26:23;;;;;;;32.07;21.47;;;;;;;2.93;95.14;99867.41;5050142;28;20225;-75
2021/12/29 01:28:49;;;;;;;36.63;22.30;;;;;;;2.94;95.16;99869.13;5048861;28;20178;-75
2021/12/29 01:31:15;;;;;;;35.50;22.33;;;;;;;2.96;95.95;99872.59;5048825;28;20283;-75
2021/12/29 01:33:40;;;;;;;33.93;22.50;;;;;;;2.97;95.75;99884.41;5050201;28;20189;-75
2021/12/29 01:36:06;;;;;;;34.17;22.83;;;;;;;2.97;95.53;99886.94;5048637;28;20284;-75
2021/12/29 01:38:31;;;;;;;33.17;22.03;;;;;;;2.97;95.27;99892.00;5048485;28;20224;-75
2021/12/29 01:40:56;;;;;;;34.83;22.63;;;;;;;2.97;95.43;99896.19;5050076;28;20244;-75
2021/12/29 01:43:22;;;;;;;32.87;22.40;;;;;;;2.98;95.47;99908.00;5065441;28;20647;-75
2021/12/29 01:45:47;;;;;;;32.87;21.67;;;;;;;2.97;95.72;99906.28;5065588;28;20215;-75
2021/12/29 01:48:15;;;;;;;33.47;21.83;;;;;;;2.94;95.83;99898.63;5049814;28;20213;-75
2021/12/29 01:50:42;;;;;;;35.23;22.53;;;;;;;2.93;95.33;99904.47;5048576;28;20213;-75
2021/12/29 01:53:09;;;;;;;35.00;21.90;;;;;;;2.92;95.80;99908.69;5064741;28;20569;-75
2021/12/29 01:55:37;;;;;;;41.03;22.80;;;;;;;2.90;95.44;99917.03;5049896;28;20217;-75
2021/12/29 01:58:03;;;;;;;36.47;22.90;;;;;;;2.91;95.99;99912.03;5049432;28;20615;-75
2021/12/29 02:00:30;;;;;;;34.30;22.67;;;;;;;2.91;95.92;99921.25;5049397;28;20264;-75
2021/12/29 02:02:56;;;;;;;38.20;23.60;;;;;;;2.93;95.72;99922.16;5048274;28;20217;-75
2021/12/29 02:05:22;;;;;;;36.33;22.67;;;;;;;2.94;96.19;99924.75;5064865;28;20632;-75
2021/12/29 02:07:47;;;;;;;36.60;22.40;;;;;;;2.94;96.47;99928.97;5064472;28;20663;-75
2021/12/29 02:10:15;;;;;;;40.70;23.10;;;;;;;2.92;95.75;99926.38;5049285;28;20247;-75
2021/12/29 02:12:41;;;;;;;54.07;29.43;;;;;;;2.91;96.57;99926.31;5064757;28;20189;-75
2021/12/29 02:15:07;;;;;;;59.43;31.47;;;;;;;2.92;95.78;99922.97;5049415;28;20849;-75
2021/12/29 02:17:33;;;;;;;49.63;30.13;;;;;;;2.92;96.17;99933.09;5049336;28;20196;-75
2021/12/29 02:20:00;;;;;;;53.73;28.07;;;;;;;2.92;96.20;99935.63;5049383;28;20185;-77
2021/12/29 02:22:42;;;;;;;49.37;26.93;;;;;;;2.91;96.34;99939.81;5030810;28;20305;-75
2021/12/29 02:27:48;;;;;;;52.60;27.07;;;;;;;2.86;96.28;99948.06;5049257;28;20169;-76
2021/12/29 02:30:16;;;;;;;51.77;28.60;;;;;;;2.87;96.87;99957.34;5049499;28;20186;-76
2021/12/29 02:32:42;;;;;;;52.73;25.43;;;;;;;2.85;96.83;99952.22;5052286;28;20200;-76
2021/12/29 02:35:08;;;;;;;51.20;26.27;;;;;;;2.86;96.51;99956.50;5053375;28;20197;-76
2021/12/29 02:37:33;;;;;;;54.63;27.90;;;;;;;2.86;96.95;99959.03;5068589;28;20288;-76
2021/12/29 02:39:59;;;;;;;52.53;26.90;;;;;;;2.88;96.68;99962.47;5051923;28;20719;-76
2021/12/29 02:42:28;;;;;;;50.07;25.50;;;;;;;2.90;96.64;99962.53;5068523;28;20297;-76
2021/12/29 02:44:54;;;;;;;54.03;25.43;;;;;;;2.87;96.42;99968.31;5053322;28;20185;-76
2021/12/29 02:47:20;;;;;;;49.90;25.77;;;;;;;2.87;96.59;99968.31;5051999;28;20196;-76
2021/12/29 02:49:46;;;;;;;49.20;25.00;;;;;;;2.86;97.13;99978.38;5053136;28;20273;-76
2021/12/29 02:52:14;;;;;;;44.67;24.50;;;;;;;2.87;96.63;99968.31;5051312;28;20331;-76
2021/12/29 02:54:40;;;;;;;57.77;26.73;;;;;;;2.90;96.73;99977.69;5053196;28;20197;-76
2021/12/29 02:57:05;;;;;;;50.43;25.33;;;;;;;2.89;97.00;99986.09;5052967;28;20710;-76
2021/12/29 02:59:30;;;;;;;50.57;25.00;;;;;;;2.88;97.33;99977.63;5052616;28;20235;-76
2021/12/29 03:01:56;;;;;;;49.27;24.60;;;;;;;2.90;96.62;99991.16;5051907;28;20288;-76
2021/12/29 03:04:21;;;;;;;52.43;27.47;;;;;;;2.89;96.55;99991.97;5053148;28;20189;-76
2021/12/29 03:06:47;;;;;;;50.23;24.93;;;;;;;2.94;96.81;100005.63;5068077;28;20304;-76
2021/12/29 03:09:13;;;;;;;45.63;25.97;;;;;;;2.94;96.99;99999.75;5052911;28;20186;-76
2021/12/29 03:11:40;;;;;;;43.57;24.03;;;;;;;2.91;97.05;100017.31;5051430;28;20204;-76
2021/12/29 03:14:06;;;;;;;43.97;23.47;;;;;;;2.88;97.40;100012.13;5052766;28;20647;-76
2021/12/29 03:16:33;;;;;;;42.87;24.40;;;;;;;2.89;96.36;100012.19;5052726;28;20193;-76
2021/12/29 03:18:58;;;;;;;41.90;23.27;;;;;;;2.89;96.52;100017.25;5052380;28;20723;-76
2021/12/29 03:21:24;;;;;;;42.77;24.47;;;;;;;2.92;96.71;100016.50;5051132;28;20217;-76
2021/12/29 03:23:49;;;;;;;41.77;22.70;;;;;;;2.90;96.19;100023.19;5052286;28;20224;-76
2021/12/29 03:26:15;;;;;;;42.13;24.07;;;;;;;2.90;95.95;100031.59;5052487;28;20221;-76
2021/12/29 03:28:43;;;;;;;41.17;23.40;;;;;;;2.89;95.85;100024.84;5052288;28;20174;-76
2021/12/29 03:31:11;;;;;;;38.10;22.90;;;;;;;2.90;96.94;100029.06;5052111;28;20252;-76
2021/12/29 03:33:38;;;;;;;38.30;23.50;;;;;;;2.89;96.38;100036.63;5050970;28;20748;-76
2021/12/29 03:36:04;;;;;;;38.43;23.20;;;;;;;2.87;95.94;100045.81;5050892;28;20201;-76
2021/12/29 03:38:32;;;;;;;37.90;22.70;;;;;;;2.88;96.64;100048.41;5050475;28;20233;-76
2021/12/29 03:40:58;;;;;;;38.83;23.27;;;;;;;2.85;96.08;100048.28;5051643;28;20205;-76
2021/12/29 03:43:26;;;;;;;37.83;23.17;;;;;;;2.85;95.85;100052.50;5052073;28;20204;-76
2021/12/29 03:45:52;;;;;;;42.13;22.73;;;;;;;2.85;95.82;100055.84;5052001;28;20210;-76
2021/12/29 03:48:20;;;;;;;50.37;25.70;;;;;;;2.81;95.95;100056.53;5051883;28;20242;-76
2021/12/29 03:50:46;;;;;;;41.33;23.83;;;;;;;2.80;96.32;100061.56;5050620;28;20255;-76
2021/12/29 03:53:13;;;;;;;42.37;24.47;;;;;;;2.84;96.84;100071.84;5051517;28;20224;-76
2021/12/29 03:55:42;;;;;;;44.90;23.93;;;;;;;2.83;96.23;100070.13;5051561;28;20174;-76
2021/12/29 03:58:08;;;;;;;41.33;24.63;;;;;;;2.86;96.29;100071.91;5052104;28;20213;-76
2021/12/29 04:00:33;;;;;;;39.63;23.47;;;;;;;2.88;96.51;100080.38;5033901;28;20237;-76
2021/12/29 04:02:58;;;;;;;44.67;23.70;;;;;;;2.87;96.59;100081.19;5051754;28;20197;-76
2021/12/29 04:05:26;;;;;;;41.93;23.83;;;;;;;2.89;96.76;100072.03;5051629;28;20308;-76
2021/12/29 04:07:53;;;;;;;39.83;24.20;;;;;;;2.88;96.34;100072.81;5051667;28;20181;-76
2021/12/29 04:10:20;;;;;;;40.00;22.33;;;;;;;2.90;96.54;100076.25;5051216;28;20192;-76
2021/12/29 04:12:45;;;;;;;42.77;23.83;;;;;;;2.90;96.82;100074.56;5051594;28;20197;-76
2021/12/29 04:15:12;;;;;;;43.20;24.90;;;;;;;2.88;96.80;100081.25;5051599;28;20190;-76
2021/12/29 04:17:39;;;;;;;42.90;24.33;;;;;;;2.89;96.51;100087.19;5051732;28;20186;-76
2021/12/29 04:22:50;;;;;;;41.97;24.07;;;;;;;2.88;97.25;100091.38;5051547;28;20587;-76
2021/12/29 04:25:15;;;;;;;46.33;23.10;;;;;;;2.88;97.19;100091.38;5051044;28;20225;-76
2021/12/29 04:27:41;;;;;;;41.07;23.43;;;;;;;2.89;96.25;100092.25;5066625;28;20178;-76
2021/12/29 04:30:06;;;;;;;43.53;22.20;;;;;;;2.90;96.27;100096.50;5051133;28;20537;-76
2021/12/29 04:32:32;;;;;;;40.97;23.40;;;;;;;2.88;96.67;100100.59;5051200;28;20206;-76
2021/12/29 04:34:57;;;;;;;47.00;23.03;;;;;;;2.91;96.82;100105.78;5050983;28;20193;-76
2021/12/29 04:37:23;;;;;;;44.23;23.50;;;;;;;2.90;96.96;100114.19;5050002;28;20186;-76
2021/12/29 04:39:49;;;;;;;49.03;23.57;;;;;;;2.92;97.04;100125.19;5050874;28;20209;-76
2021/12/29 04:42:14;;;;;;;47.43;22.63;;;;;;;2.92;96.69;100131.13;5050917;28;20233;-76
2021/12/29 04:44:40;;;;;;;41.70;22.10;;;;;;;2.92;96.79;100141.25;5050599;28;20255;-76
2021/12/29 04:47:07;;;;;;;44.87;21.90;;;;;;;2.93;96.42;100149.66;5050806;28;20832;-76
2021/12/29 04:49:40;;;;;;;53.30;24.00;;;;;;;2.90;96.93;100159.69;5050704;28;20192;-76
2021/12/29 04:52:07;;;;;;;43.93;21.70;;;;;;;2.90;96.21;100159.69;5050786;28;20224;-76
2021/12/29 04:54:33;;;;;;;41.97;22.03;;;;;;;2.87;97.11;100157.91;5048291;28;20259;-76
2021/12/29 04:56:59;;;;;;;43.70;22.50;;;;;;;2.88;96.48;100171.38;5032785;28;20190;-76
2021/12/29 04:59:26;;;;;;;46.93;22.53;;;;;;;2.88;96.69;100163.78;5050086;28;20189;-76
2021/12/29 05:01:52;;;;;;;49.67;23.43;;;;;;;2.89;96.68;100168.91;5049399;28;20198;-76
2021/12/29 05:04:23;;;;;;;49.40;23.17;;;;;;;2.88;96.62;100167.19;5050301;28;20213;-76
2021/12/29 05:09:33;;;;;;;47.50;22.50;;;;;;;2.88;96.76;100181.50;5050177;28;20194;-76
2021/12/29 05:12:01;;;;;;;45.10;23.40;;;;;;;2.89;96.55;100176.50;5050475;28;20218;-76
2021/12/29 05:14:26;;;;;;;51.53;24.70;;;;;;;2.88;96.38;100182.38;5049157;28;20558;-76
2021/12/29 05:16:52;;;;;;;43.63;23.00;;;;;;;2.90;96.66;100178.22;5048568;28;20186;-76
2021/12/29 05:19:17;;;;;;;48.43;23.10;;;;;;;2.89;96.60;100173.97;5065501;28;20240;-76
2021/12/29 05:21:42;;;;;;;42.60;22.33;;;;;;;2.90;96.06;100173.16;5050067;28;20201;-76
2021/12/29 05:24:08;;;;;;;40.30;21.23;;;;;;;2.91;95.99;100177.44;5065722;28;20193;-76
2021/12/29 05:26:34;;;;;;;40.77;21.67;;;;;;;2.91;96.85;100181.63;5050227;28;20270;-76
2021/12/29 05:28:59;;;;;;;46.37;23.03;;;;;;;2.91;96.51;100179.09;5050050;28;20592;-76
2021/12/29 05:31:25;;;;;;;41.37;21.83;;;;;;;2.91;96.46;100177.44;5065566;28;20741;-76
2021/12/29 05:33:50;;;;;;;41.37;21.30;;;;;;;2.93;96.46;100187.59;5048927;28;20814;-76
2021/12/29 05:36:16;;;;;;;44.07;22.37;;;;;;;2.94;96.51;100190.19;5065098;28;20193;-76
2021/12/29 05:38:41;;;;;;;50.90;22.17;;;;;;;2.93;96.33;100200.22;5050047;28;20331;-76
2021/12/29 05:41:06;;;;;;;39.20;21.13;;;;;;;2.91;95.85;100199.31;5049925;28;20202;-76
2021/12/29 05:43:32;;;;;;;49.67;23.10;;;;;;;2.92;96.12;100214.53;5048741;28;20196;-76
2021/12/29 05:45:57;;;;;;;44.97;22.83;;;;;;;2.94;96.92;100215.44;5050021;28;20318;-76
2021/12/29 05:48:22;;;;;;;43.90;21.93;;;;;;;2.93;96.89;100223.84;5049550;28;20181;-76
2021/12/29 05:50:48;;;;;;;41.83;22.30;;;;;;;2.92;96.87;100222.13;5049788;28;21350;-76
2021/12/29 05:53:13;;;;;;;45.63;22.00;;;;;;;2.92;96.86;100234.78;5049789;28;20605;-76
2021/12/29 05:55:41;;;;;;;42.70;21.27;;;;;;;2.94;96.17;100235.69;5048431;28;20990;-76
2021/12/29 05:58:08;;;;;;;46.53;21.27;;;;;;;2.96;96.09;100230.69;5031188;28;20186;-76
2021/12/29 06:00:33;;;;;;;49.17;22.90;;;;;;;2.98;96.70;100229.06;5049746;28;20255;-76
2021/12/29 06:02:59;;;;;;;51.33;22.43;;;;;;;2.92;95.86;100232.25;5049731;28;20218;-76
2021/12/29 06:05:24;;;;;;;46.37;21.70;;;;;;;2.92;95.98;100226.31;5048934;28;20259;-76
2021/12/29 06:07:50;;;;;;;48.77;21.40;;;;;;;2.93;96.73;100233.97;5049601;28;20931;-76
2021/12/29 06:10:15;;;;;;;50.40;22.20;;;;;;;2.93;96.23;100235.59;5049676;28;20807;-76
2021/12/29 06:12:41;;;;;;;45.43;20.37;;;;;;;2.91;96.52;100229.66;5048430;28;20188;-76
2021/12/29 06:15:08;;;;;;;45.00;20.50;;;;;;;2.91;96.52;100239.75;5048164;28;20201;-76
2021/12/29 06:17:33;;;;;;;42.93;20.03;;;;;;;2.93;96.32;100239.00;5049522;28;20213;-76
2021/12/29 06:19:59;;;;;;;42.70;20.87;;;;;;;2.94;96.45;100238.22;5047491;28;20670;-76
2021/12/29 06:22:24;;;;;;;43.73;20.90;;;;;;;2.95;96.25;100241.59;5048047;28;20583;-76
2021/12/29 06:24:52;;;;;;;45.17;21.50;;;;;;;2.98;97.13;100247.63;5031590;28;20194;-76
2021/12/29 06:27:22;;;;;;;43.70;20.87;;;;;;;2.98;96.46;100249.28;5048309;28;20873;-76
2021/12/29 06:29:47;;;;;;;44.57;20.33;;;;;;;2.96;96.16;100253.44;5048125;28;20231;-76
2021/12/29 06:32:13;;;;;;;43.30;20.50;;;;;;;2.97;96.78;100262.75;5049563;28;20210;-76
2021/12/29 06:34:38;;;;;;;48.87;21.50;;;;;;;2.97;96.32;100260.22;5048015;28;20359;-76
2021/12/29 06:37:08;;;;;;;46.40;21.93;;;;;;;2.94;97.17;100268.53;5049711;28;20239;-76
2021/12/29 06:39:36;;;;;;;48.13;21.47;;;;;;;2.96;96.29;100278.72;5049450;28;20190;-76
2021/12/29 06:42:02;;;;;;;46.57;20.80;;;;;;;2.95;96.56;100277.00;5049350;28;20293;-76
2021/12/29 06:44:27;;;;;;;50.27;22.40;;;;;;;2.94;96.65;100280.34;5064945;28;20209;-76
2021/12/29 06:46:53;;;;;;;45.70;21.07;;;;;;;2.94;96.43;100273.59;5049544;28;20224;-76
2021/12/29 06:49:18;;;;;;;46.67;21.40;;;;;;;2.94;96.34;100287.94;5049273;28;20182;-76
2021/12/29 06:51:43;;;;;;;47.90;21.37;;;;;;;2.94;96.63;100293.81;5049204;28;20224;-76
2021/12/29 06:54:09;;;;;;;58.27;22.93;;;;;;;2.94;96.40;100298.03;5049201;28;20236;-76
2021/12/29 06:56:34;;;;;;;56.17;23.40;;;;;;;2.94;96.33;100293.81;5049136;28;20701;-77
2021/12/29 06:58:59;;;;;;;43.93;20.80;;;;;;;2.94;96.69;100300.56;5047089;28;20260;-76
2021/12/29 07:01:25;;;;;;;57.17;22.30;;;;;;;2.93;97.18;100309.81;5064375;28;20284;-76
2021/12/29 07:03:50;;;;;;;44.83;22.47;;;;;;;2.90;96.44;100309.66;5049186;28;20227;-76
2021/12/29 07:06:15;;;;;;;44.30;22.73;;;;;;;2.91;96.52;100308.00;5047868;28;20205;-76
2021/12/29 07:08:41;;;;;;;45.03;22.33;;;;;;;2.92;96.46;100320.72;5063939;28;20185;-75
2021/12/29 07:11:06;;;;;;;45.17;23.03;;;;;;;2.94;96.61;100335.97;5064171;28;20206;-75
2021/12/29 07:13:32;;;;;;;42.73;21.17;;;;;;;2.93;97.02;100340.13;5048797;28;20182;-76
2021/12/29 07:15:57;;;;;;;42.83;20.70;;;;;;;2.91;96.78;100351.88;5049084;28;20174;-76
2021/12/29 07:18:22;;;;;;;46.80;22.77;;;;;;;2.94;96.71;100351.13;5052163;28;20177;-76
2021/12/29 07:20:48;;;;;;;45.83;23.00;;;;;;;2.92;97.46;100358.63;5052702;28;20748;-76
2021/12/29 07:23:13;;;;;;;55.93;25.23;;;;;;;2.93;97.04;100367.94;5052743;28;20178;-76
2021/12/29 07:25:38;;;;;;;46.30;23.23;;;;;;;2.92;97.07;100372.94;5068007;28;20232;-76
2021/12/29 07:28:04;;;;;;;49.17;22.90;;;;;;;2.94;97.10;100384.00;5052486;28;20663;-75
2021/12/29 07:30:29;;;;;;;48.03;24.30;;;;;;;2.93;96.76;100385.63;5051163;28;20685;-75
2021/12/29 07:32:54;;;;;;;50.70;24.50;;;;;;;2.93;97.07;100390.69;5051202;28;20178;-76
2021/12/29 07:35:20;;;;;;;49.60;24.17;;;;;;;2.94;97.00;100404.22;5050943;28;20256;-76
2021/12/29 07:37:46;;;;;;;53.97;24.33;;;;;;;2.95;96.54;100395.81;5051972;28;20174;-76
2021/12/29 07:40:11;;;;;;;52.50;25.13;;;;;;;2.95;96.76;100411.00;5050713;28;20551;-76
2021/12/29 07:42:39;;;;;;;50.30;24.57;;;;;;;2.97;96.78;100412.78;5052136;28;20245;-76
2021/12/29 07:45:08;;;;;;;51.77;24.63;;;;;;;2.98;96.55;100426.25;5052116;28;20197;-76
2021/12/29 07:47:35;;;;;;;52.87;24.33;;;;;;;2.99;96.79;100435.59;5052237;28;20192;-77
2021/12/29 07:50:00;;;;;;;50.30;24.27;;;;;;;2.98;96.15;100434.72;5051952;28;20198;-75
2021/12/29 07:52:26;;;;;;;48.17;24.10;;;;;;;2.99;96.25;100448.25;5051815;28;20206;-76
2021/12/29 07:54:51;;;;;;;45.53;25.07;;;;;;;3.00;96.13;100449.97;5050690;28;20194;-77
2021/12/29 07:57:16;;;;;;;52.60;25.87;;;;;;;2.98;96.24;100452.44;5051915;28;20174;-76
2021/12/29 07:59:42;;;;;;;52.83;25.87;;;;;;;2.96;96.81;100456.56;5051155;28;20816;-76
2021/12/29 08:02:14;;;;;;;58.77;25.73;;;;;;;2.96;95.65;100473.38;5051246;28;20202;-75
2021/12/29 08:04:39;;;;;;;50.63;25.33;;;;;;;2.95;96.08;100474.19;5034846;28;20198;-75
2021/12/29 08:07:05;;;;;;;49.57;24.50;;;;;;;2.96;96.37;100475.91;5051615;28;20224;-75
2021/12/29 08:09:30;;;;;;;54.10;25.83;;;;;;;2.97;96.78;100473.47;5052281;28;20197;-75
2021/12/29 08:11:56;;;;;;;56.13;25.43;;;;;;;2.99;96.74;100476.06;5051832;28;20228;-76
2021/12/29 08:14:21;;;;;;;55.57;26.83;;;;;;;3.01;96.18;100471.91;5052364;28;20281;-75
2021/12/29 08:16:46;;;;;;;59.63;29.17;;;;;;;3.00;96.91;100478.66;5051968;28;20223;-75
2021/12/29 08:19:12;;;;;;;64.30;29.60;;;;;;;3.00;96.20;100478.66;5050481;28;20197;-75
2021/12/29 08:21:37;;;;;;;58.07;27.77;;;;;;;3.03;96.24;100485.50;5052558;28;20194;-76
2021/12/29 08:24:03;;;;;;;62.93;27.80;;;;;;;3.02;96.63;100487.16;5035036;28;20682;-76
2021/12/29 08:26:28;;;;;;;59.13;26.73;;;;;;;3.05;96.19;100494.00;5049646;28;20231;-76
2021/12/29 08:28:57;;;;;;;60.20;28.67;;;;;;;3.03;96.74;100486.34;5049378;28;20178;-75
2021/12/29 08:31:22;;;;;;;56.57;27.83;;;;;;;3.05;96.68;100497.41;5051073;28;20213;-76
2021/12/29 08:33:48;;;;;;;57.00;26.77;;;;;;;3.07;96.24;100498.34;5051295;28;20558;-76
2021/12/29 08:36:13;;;;;;;51.80;24.80;;;;;;;3.08;96.49;100497.53;5050027;28;20221;-76
2021/12/29 08:38:38;;;;;;;57.13;27.00;;;;;;;3.09;96.64;100495.88;5051013;28;20228;-76
2021/12/29 08:41:04;;;;;;;53.03;26.57;;;;;;;3.12;96.62;100498.56;5051057;28;20206;-76
2021/12/29 08:43:31;;;;;;;58.53;27.47;;;;;;;3.12;95.93;100496.88;5032948;28;20178;-76
2021/12/29 08:45:56;;;;;;;57.63;26.83;;;;;;;3.14;96.19;100502.00;5050972;28;20225;-76
2021/12/29 08:48:22;;;;;;;52.00;25.50;;;;;;;3.18;95.86;100499.66;5050846;28;20189;-76
2021/12/29 08:50:47;;;;;;;51.90;26.37;;;;;;;3.21;96.49;100493.84;5050985;28;20205;-76
2021/12/29 08:53:13;;;;;;;55.23;26.97;;;;;;;3.20;96.44;100495.53;5066044;28;20190;-76
2021/12/29 08:55:44;;;;;;;56.57;25.53;;;;;;;3.21;95.95;100499.78;5049508;28;20235;-76
2021/12/29 08:58:09;;;;;;;54.73;25.73;;;;;;;3.24;96.59;100499.94;5050154;28;20719;-76
2021/12/29 09:00:35;;;;;;;51.83;25.23;;;;;;;3.28;96.10;100498.38;5065991;28;20221;-76
2021/12/29 09:03:00;;;;;;;53.73;26.27;;;;;;;3.28;96.24;100504.31;5066235;28;20797;-76
2021/12/29 09:05:25;;;;;;;53.23;26.00;;;;;;;3.28;96.60;100513.56;5050390;28;20217;-76
2021/12/29 09:07:51;;;;;;;52.73;27.17;;;;;;;3.30;96.11;100506.88;5066068;28;20193;-76
2021/12/29 09:10:19;;;;;;;57.07;26.20;;;;;;;3.31;96.48;100508.66;5050443;28;20170;-76
2021/12/29 09:12:47;;;;;;;49.57;25.07;;;;;;;3.32;96.46;100511.22;5050572;28;20185;-75
2021/12/29 09:15:14;;;;;;;50.60;25.60;;;;;;;3.35;96.14;100515.56;5050393;28;20182;-75
2021/12/29 09:17:39;;;;;;;53.10;27.50;;;;;;;3.36;95.83;100522.34;5050725;28;20212;-76
2021/12/29 09:20:06;;;;;;;51.67;25.77;;;;;;;3.38;96.40;100529.19;5050232;28;20189;-75
2021/12/29 09:22:31;;;;;;;48.73;25.20;;;;;;;3.41;96.43;100525.94;5050561;28;20217;-75
2021/12/29 09:24:56;;;;;;;57.10;26.47;;;;;;;3.39;95.77;100523.34;5050834;28;20541;-75
2021/12/29 09:27:22;;;;;;;55.07;25.80;;;;;;;3.40;95.81;100521.69;5050361;28;20686;-75
2021/12/29 09:29:47;;;;;;;53.60;27.33;;;;;;;3.39;95.71;100525.00;5049065;28;20228;-75
2021/12/29 09:32:13;;;;;;;55.80;27.13;;;;;;;3.43;95.87;100534.44;5049194;28;20616;-76
2021/12/29 09:34:38;;;;;;;54.20;26.80;;;;;;;3.45;96.06;100527.81;5050107;28;20617;-75
2021/12/29 09:37:07;;;;;;;54.87;27.10;;;;;;;3.46;95.57;100537.13;5049890;28;20249;-76
2021/12/29 09:39:32;;;;;;;50.30;26.60;;;;;;;3.48;96.08;100535.50;5049075;28;20178;-76
2021/12/29 09:41:57;;;;;;;56.57;26.47;;;;;;;3.46;96.33;100547.22;5048314;28;20210;-76
2021/12/29 09:44:23;;;;;;;49.63;25.80;;;;;;;3.49;96.14;100565.94;5050036;28;20193;-76
2021/12/29 09:46:49;;;;;;;54.20;25.63;;;;;;;3.52;95.71;100553.41;5031965;28;20850;-76
2021/12/29 09:49:16;;;;;;;58.23;27.33;;;;;;;3.50;96.09;100559.22;5048592;28;20192;-76
2021/12/29 09:51:42;;;;;;;54.03;27.97;;;;;;;3.50;95.73;100566.81;5048423;28;20210;-76
2021/12/29 09:54:08;;;;;;;56.27;28.23;;;;;;;3.52;96.17;100563.53;5048467;28;20189;-76
2021/12/29 09:56:33;;;;;;;58.57;27.97;;;;;;;3.55;96.03;100560.28;5031968;28;20265;-76
2021/12/29 09:58:59;;;;;;;60.97;28.73;;;;;;;3.58;96.33;100565.47;5048063;28;20569;-72
2021/12/29 10:01:25;;;;;;;58.50;28.13;;;;;;;3.63;96.18;100567.38;5049584;28;20205;-73
2021/12/29 10:03:50;;;;;;;65.80;27.73;;;;;;;3.76;95.98;100556.09;5051544;28;20675;-74
2021/12/29 10:06:16;;;;;;;57.87;28.07;;;;;;;3.84;96.28;100547.16;5049164;28;20206;-76
2021/12/29 10:08:44;;;;;;;74.47;30.10;;;;;;;3.86;96.04;100546.41;5049267;28;20621;-76
2021/12/29 10:11:13;;;;;;;73.13;31.53;;;;;;;3.88;95.53;100546.47;5048895;28;20210;-76
2021/12/29 10:13:41;;;;;;;72.20;29.40;;;;;;;3.89;95.59;100549.06;5050663;28;20263;-76
2021/12/29 10:16:10;;;;;;;73.33;30.33;;;;;;;3.88;95.40;100551.53;5048841;28;20185;-78
2021/12/29 10:18:37;;;;;;;72.73;31.63;;;;;;;3.89;95.59;100549.06;5049676;28;20185;-76
2021/12/29 10:21:09;;;;;;;70.10;30.40;;;;;;;3.90;95.89;100555.88;5050281;28;20214;-76
2021/12/29 10:23:37;;;;;;;72.57;31.93;;;;;;;3.89;95.58;100559.22;5049403;28;20541;-77
2021/12/29 10:26:14;;;;;;;69.50;30.73;;;;;;;3.92;95.26;100563.53;5048934;28;20210;-76
2021/12/29 10:28:42;;;;;;;64.57;27.33;;;;;;;3.92;95.52;100571.13;5049432;28;20266;-74
2021/12/29 10:31:15;;;;;;;62.10;29.83;;;;;;;3.95;95.69;100584.78;5049784;28;20230;-76
2021/12/29 10:33:48;;;;;;;61.53;29.87;;;;;;;3.96;95.47;100590.72;5049535;28;20181;-75
2021/12/29 10:36:23;;;;;;;58.33;28.57;;;;;;;3.96;95.55;100594.09;5049083;28;20650;-75
2021/12/29 10:38:51;;;;;;;57.30;27.80;;;;;;;3.97;95.58;100597.50;5049050;28;20197;-75
2021/12/29 10:41:17;;;;;;;56.83;27.47;;;;;;;3.99;95.12;100589.16;5024695;28;20214;-75
2021/12/29 10:43:55;;;;;;;56.00;28.50;;;;;;;4.02;94.87;100591.84;5060218;28;20256;-77
2021/12/29 10:46:21;;;;;;;57.17;28.30;;;;;;;4.05;95.33;100594.47;5048788;28;20205;-77
2021/12/29 10:48:50;;;;;;;63.37;27.87;;;;;;;4.08;95.05;100588.66;5048817;28;20182;-77
2021/12/29 10:51:17;;;;;;;61.50;28.80;;;;;;;4.09;95.12;100590.41;5063931;28;20213;-76
2021/12/29 10:53:43;;;;;;;57.97;27.70;;;;;;;4.09;94.67;100586.19;5053028;28;20205;-76
2021/12/29 10:56:39;;;;;;;55.43;28.43;;;;;;;4.11;94.82;100584.59;5051300;28;20178;-76
2021/12/29 10:59:18;;;;;;;56.20;27.23;;;;;;;4.09;95.43;100587.88;5051919;28;20205;-76
2021/12/29 11:01:44;;;;;;;54.90;28.60;;;;;;;4.13;95.28;100590.59;5050205;28;20209;-76
2021/12/29 11:04:13;;;;;;;59.70;28.77;;;;;;;4.15;95.33;100599.09;5053860;28;20277;-77
2021/12/29 11:06:43;;;;;;;59.77;29.17;;;;;;;4.19;95.33;100603.50;5055885;28;20258;-77
2021/12/29 11:09:10;;;;;;;53.87;28.23;;;;;;;4.22;95.33;100596.03;5052109;28;20700;-75
2021/12/29 11:11:39;;;;;;;54.40;27.07;;;;;;;4.25;95.47;100591.09;5052768;28;20569;-76
2021/12/29 11:14:16;;;;;;;53.90;28.03;;;;;;;4.26;95.06;100585.22;5052400;28;20186;-75
2021/12/29 11:16:44;;;;;;;52.13;27.63;;;;;;;4.30;94.86;100589.59;5051101;28;20650;-75
2021/12/29 11:19:10;;;;;;;53.10;27.80;;;;;;;4.30;95.01;100583.66;5051002;28;20194;-75
2021/12/29 11:21:40;;;;;;;54.50;27.17;;;;;;;4.34;95.03;100586.41;5052453;28;20205;-75
2021/12/29 11:24:25;;;;;;;48.97;27.10;;;;;;;4.35;94.77;100588.13;5032441;28;20754;-75
2021/12/29 11:26:51;;;;;;;52.53;28.13;;;;;;;4.37;95.09;100593.25;5045223;28;20316;-76
2021/12/29 11:29:19;;;;;;;54.40;29.30;;;;;;;4.40;94.99;100591.69;5051621;28;20272;-75